createdAt,value
2017-11-07T00:01:38.071Z,95.80
2017-11-07T00:04:04.635Z,95.80
2017-11-07T00:06:31.223Z,95.80
2017-11-07T00:08:58.002Z,95.70
2017-11-07T00:11:24.575Z,95.70
2017-11-07T00:13:51.139Z,95.70
2017-11-07T00:16:17.875Z,95.50
2017-11-07T00:18:44.803Z,95.50
2017-11-07T00:21:11.731Z,95.60
2017-11-07T00:23:38.787Z,95.70
2017-11-07T00:26:05.355Z,95.70
2017-11-07T00:28:31.900Z,95.70
2017-11-07T00:30:58.507Z,95.90
2017-11-07T00:33:25.052Z,95.70
2017-11-07T00:35:51.979Z,95.60
2017-11-07T00:38:18.938Z,95.60
2017-11-07T00:40:45.523Z,95.50
2017-11-07T00:43:12.466Z,95.50
2017-11-07T00:45:39.190Z,95.50
2017-11-07T00:48:05.754Z,95.60
2017-11-07T00:50:32.299Z,95.70
2017-11-07T00:52:58.920Z,95.70
2017-11-07T00:55:25.490Z,95.80
2017-11-07T00:57:52.031Z,95.80
2017-11-07T01:00:18.780Z,95.80
2017-11-07T01:02:45.359Z,95.90
2017-11-07T01:05:11.914Z,95.90
2017-11-07T01:07:38.537Z,95.80
2017-11-07T01:10:05.112Z,95.80
2017-11-07T01:12:31.679Z,95.70
2017-11-07T01:14:58.310Z,95.70
2017-11-07T01:17:24.846Z,95.70
2017-11-07T01:19:51.403Z,95.70
2017-11-07T01:22:18.030Z,95.60
2017-11-07T01:24:44.596Z,95.70
2017-11-07T01:27:11.541Z,95.70
2017-11-07T01:29:38.159Z,95.70
2017-11-07T01:32:05.099Z,95.70
2017-11-07T01:34:31.653Z,95.70
2017-11-07T01:36:58.302Z,95.80
2017-11-07T01:39:24.863Z,95.80
2017-11-07T01:41:51.415Z,96.20
2017-11-07T01:44:18.220Z,96.40
2017-11-07T01:46:44.830Z,96.20
2017-11-07T01:49:11.450Z,96.20
2017-11-07T01:51:38.076Z,96.20
2017-11-07T01:54:04.626Z,96.20
2017-11-07T01:56:31.195Z,96.20
2017-11-07T01:58:58.280Z,96.50
2017-11-07T02:01:24.950Z,96.60
2017-11-07T02:03:51.519Z,96.70
2017-11-07T02:06:18.126Z,96.70
2017-11-07T02:08:44.771Z,96.80
2017-11-07T02:11:11.351Z,97.00
2017-11-07T02:13:38.000Z,97.10
2017-11-07T02:16:04.615Z,97.00
2017-11-07T02:18:31.215Z,97.00
2017-11-07T02:20:57.992Z,97.00
2017-11-07T02:23:24.619Z,96.90
2017-11-07T02:25:51.236Z,97.00
2017-11-07T02:28:17.919Z,96.90
2017-11-07T02:30:44.546Z,96.80
2017-11-07T02:33:11.194Z,96.80
2017-11-07T02:35:37.872Z,96.80
2017-11-07T02:38:04.515Z,96.80
2017-11-07T02:40:31.102Z,96.90
2017-11-07T02:42:57.759Z,97.10
2017-11-07T02:45:24.373Z,97.00
2017-11-07T02:47:50.999Z,97.00
2017-11-07T02:50:17.610Z,97.10
2017-11-07T02:52:44.236Z,97.20
2017-11-07T02:55:10.815Z,97.20
2017-11-07T02:57:37.836Z,97.20
2017-11-07T03:00:04.470Z,97.20
2017-11-07T03:02:31.387Z,97.10
2017-11-07T03:04:58.359Z,97.20
2017-11-07T03:07:24.913Z,97.20
2017-11-07T03:09:51.471Z,97.20
2017-11-07T03:12:18.088Z,97.20
2017-11-07T03:14:45.027Z,97.20
2017-11-07T03:17:11.570Z,97.20
2017-11-07T03:19:38.181Z,97.20
2017-11-07T03:22:04.739Z,97.20
2017-11-07T03:36:42.735Z,97.50
2017-11-07T03:39:09.302Z,97.10
2017-11-07T03:41:35.859Z,97.00
2017-11-07T03:44:02.474Z,97.00
2017-11-07T03:46:29.022Z,97.00
2017-11-07T03:48:55.615Z,97.10
2017-11-07T03:51:22.256Z,97.00
2017-11-07T03:53:48.822Z,97.00
2017-11-07T03:56:15.395Z,97.10
2017-11-07T03:58:41.996Z,97.10
2017-11-07T04:01:08.563Z,97.00
2017-11-07T04:03:35.500Z,97.00
2017-11-07T04:06:02.186Z,97.00
2017-11-07T04:08:28.736Z,97.10
2017-11-07T04:10:55.650Z,97.20
2017-11-07T04:13:22.263Z,97.20
2017-11-07T04:15:48.814Z,97.10
2017-11-07T04:18:15.371Z,97.20
2017-11-07T04:20:41.963Z,97.10
2017-11-07T04:23:08.527Z,97.10
2017-11-07T04:25:35.084Z,97.20
2017-11-07T04:28:02.097Z,97.20
2017-11-07T04:30:29.028Z,97.40
2017-11-07T04:32:55.571Z,97.40
2017-11-07T04:35:22.199Z,97.40
2017-11-07T04:37:48.774Z,97.40
2017-11-07T04:40:15.367Z,97.40
2017-11-07T04:42:42.186Z,97.20
2017-11-07T04:45:08.743Z,97.00
2017-11-07T04:47:42.135Z,97.00
2017-11-07T04:50:08.774Z,97.00
2017-11-07T04:52:35.711Z,96.80
2017-11-07T04:55:02.340Z,96.80
2017-11-07T04:57:28.903Z,96.80
2017-11-07T04:59:55.463Z,96.80
2017-11-07T05:02:22.624Z,96.80
2017-11-07T05:04:49.190Z,96.80
2017-11-07T05:07:15.754Z,96.80
2017-11-07T05:09:42.353Z,96.80
2017-11-07T05:12:09.300Z,96.90
2017-11-07T05:14:35.879Z,96.90
2017-11-07T05:17:02.527Z,96.90
2017-11-07T05:19:29.460Z,97.00
2017-11-07T05:21:56.027Z,97.00
2017-11-07T05:24:22.752Z,97.00
2017-11-07T05:26:49.307Z,97.00
2017-11-07T05:29:16.241Z,97.10
2017-11-07T05:31:43.227Z,97.20
2017-11-07T05:34:09.783Z,97.20
2017-11-07T05:36:36.342Z,97.40
2017-11-07T05:39:03.099Z,97.50
2017-11-07T05:41:29.656Z,97.50
2017-11-07T05:43:56.585Z,97.50
2017-11-07T05:46:23.755Z,97.50
2017-11-07T05:48:50.347Z,97.50
2017-11-07T05:51:17.048Z,97.50
2017-11-07T05:53:43.830Z,97.60
2017-11-07T05:56:10.383Z,97.70
2017-11-07T05:58:36.944Z,97.70
2017-11-07T06:01:03.680Z,97.70
2017-11-07T06:03:30.250Z,97.80
2017-11-07T06:05:56.807Z,97.90
2017-11-07T06:08:23.425Z,97.80
2017-11-07T06:10:49.979Z,97.80
2017-11-07T06:13:16.528Z,97.60
2017-11-07T06:15:43.143Z,97.60
2017-11-07T06:18:09.755Z,97.70
2017-11-07T06:20:36.323Z,97.70
2017-11-07T06:23:02.926Z,97.80
2017-11-07T06:25:29.843Z,97.70
2017-11-07T06:27:56.423Z,97.70
2017-11-07T06:30:23.067Z,97.60
2017-11-07T06:32:49.624Z,97.70
2017-11-07T06:35:16.556Z,97.70
2017-11-07T06:37:43.536Z,97.70
2017-11-07T06:40:10.091Z,97.70
2017-11-07T06:42:37.026Z,97.80
2017-11-07T06:45:04.119Z,97.70
2017-11-07T06:47:30.682Z,97.80
2017-11-07T06:49:57.614Z,97.50
2017-11-07T06:52:24.704Z,97.60
2017-11-07T06:54:51.270Z,97.60
2017-11-07T06:57:17.839Z,97.20
2017-11-07T06:59:44.491Z,97.20
2017-11-07T07:02:11.484Z,97.20
2017-11-07T07:04:38.051Z,97.20
2017-11-07T07:07:05.159Z,97.10
2017-11-07T07:09:31.756Z,97.10
2017-11-07T07:11:58.313Z,97.00
2017-11-07T07:14:25.037Z,96.80
2017-11-07T07:16:51.594Z,96.80
2017-11-07T07:19:18.143Z,96.70
2017-11-07T07:21:44.738Z,96.70
2017-11-07T07:24:11.295Z,96.60
2017-11-07T07:26:37.843Z,96.50
2017-11-07T07:29:04.826Z,96.50
2017-11-07T07:31:31.379Z,96.50
2017-11-07T07:33:57.934Z,96.40
2017-11-07T07:36:24.599Z,96.30
2017-11-07T07:38:51.151Z,96.20
2017-11-07T07:41:18.076Z,95.50
2017-11-07T07:43:45.082Z,95.90
2017-11-07T07:46:11.682Z,96.00
2017-11-07T07:48:45.239Z,95.90
2017-11-07T07:51:11.814Z,95.70
2017-11-07T07:53:38.450Z,95.50
2017-11-07T07:56:05.216Z,95.60
2017-11-07T07:58:31.767Z,95.30
2017-11-07T08:00:58.362Z,95.40
2017-11-07T08:03:25.040Z,95.00
2017-11-07T08:05:52.045Z,94.80
2017-11-07T08:08:18.716Z,94.80
2017-11-07T08:10:45.347Z,94.60
2017-11-07T08:13:11.951Z,95.00
2017-11-07T08:15:38.590Z,95.30
2017-11-07T08:18:05.270Z,95.20
2017-11-07T08:20:31.847Z,95.30
2017-11-07T08:22:58.427Z,95.30
2017-11-07T08:25:25.799Z,95.30
2017-11-07T08:27:52.363Z,95.30
2017-11-07T08:30:18.923Z,95.50
2017-11-07T08:32:45.545Z,95.20
2017-11-07T08:35:12.104Z,95.40
2017-11-07T08:37:38.668Z,95.20
2017-11-07T08:40:05.655Z,95.40
2017-11-07T08:42:32.212Z,95.40
2017-11-07T08:44:58.766Z,95.40
2017-11-07T08:47:25.389Z,95.40
2017-11-07T08:49:51.947Z,95.60
2017-11-07T08:52:18.515Z,95.70
2017-11-07T08:54:45.366Z,95.50
2017-11-07T08:57:12.007Z,95.50
2017-11-07T08:59:38.572Z,95.70
2017-11-07T09:02:05.574Z,95.70
2017-11-07T09:04:32.127Z,95.70
2017-11-07T09:06:58.695Z,95.70
2017-11-07T09:09:25.330Z,95.50
2017-11-07T09:11:51.900Z,95.30
2017-11-07T09:14:18.528Z,95.20
2017-11-07T09:16:45.152Z,95.40
2017-11-07T09:19:11.742Z,95.70
2017-11-07T09:21:38.709Z,95.70
2017-11-07T09:24:05.352Z,95.70
2017-11-07T09:26:31.901Z,95.50
2017-11-07T09:28:58.827Z,95.30
2017-11-07T09:31:25.800Z,95.50
2017-11-07T09:33:52.377Z,95.50
2017-11-07T09:36:19.407Z,95.40
2017-11-07T09:38:46.363Z,95.20
2017-11-07T09:46:54.400Z,95.40
2017-11-07T09:49:20.957Z,95.40
2017-11-07T09:51:47.520Z,95.10
2017-11-07T09:54:14.137Z,95.20
2017-11-07T09:56:40.737Z,95.10
2017-11-07T09:59:07.303Z,94.80
2017-11-07T10:01:33.896Z,95.00
2017-11-07T10:04:00.447Z,94.60
2017-11-07T10:06:27.036Z,94.50
2017-11-07T10:08:53.599Z,94.30
2017-11-07T10:11:20.187Z,94.60
2017-11-07T10:13:46.752Z,94.80
2017-11-07T10:16:13.750Z,94.80
2017-11-07T10:18:40.336Z,94.70
2017-11-07T10:21:06.927Z,94.40
2017-11-07T10:23:33.572Z,94.50
2017-11-07T10:26:00.225Z,94.60
2017-11-07T10:28:26.824Z,94.50
2017-11-07T10:30:53.443Z,94.50
2017-11-07T10:33:20.059Z,94.40
2017-11-07T10:35:46.676Z,94.10
2017-11-07T10:38:13.312Z,94.10
2017-11-07T10:40:39.905Z,94.40
2017-11-07T10:43:06.487Z,94.20
2017-11-07T10:45:33.139Z,93.90
2017-11-07T10:47:59.787Z,93.70
2017-11-07T10:50:26.343Z,93.40
2017-11-07T10:52:53.027Z,93.10
2017-11-07T10:55:19.731Z,92.60
2017-11-07T10:57:46.410Z,93.10
2017-11-07T11:00:13.181Z,93.20
2017-11-07T11:02:39.747Z,93.00
2017-11-07T11:05:06.344Z,93.10
2017-11-07T11:07:33.876Z,93.30
2017-11-07T11:10:00.443Z,93.00
2017-11-07T11:12:27.004Z,92.90
2017-11-07T11:14:53.644Z,93.00
2017-11-07T11:17:20.208Z,93.00
2017-11-07T11:19:46.886Z,92.60
2017-11-07T11:22:13.544Z,92.70
2017-11-07T11:24:40.111Z,92.80
2017-11-07T11:27:06.679Z,93.00
2017-11-07T11:29:33.303Z,93.30
2017-11-07T11:31:59.861Z,93.00
2017-11-07T11:34:26.787Z,93.10
2017-11-07T11:36:54.055Z,93.10
2017-11-07T11:39:20.671Z,93.10
2017-11-07T11:41:47.235Z,92.80
2017-11-07T11:44:13.895Z,92.80
2017-11-07T11:46:40.479Z,93.00
2017-11-07T11:49:07.039Z,93.30
2017-11-07T11:51:33.697Z,93.10
2017-11-07T11:54:00.382Z,93.10
2017-11-07T11:56:27.050Z,93.00
2017-11-07T11:58:53.776Z,93.00
2017-11-07T12:01:20.356Z,92.90
2017-11-07T12:03:46.944Z,93.20
2017-11-07T12:06:13.679Z,93.20
2017-11-07T12:08:40.638Z,92.80
2017-11-07T12:11:07.235Z,92.80
2017-11-07T12:13:34.243Z,93.00
2017-11-07T12:16:00.878Z,93.00
2017-11-07T12:18:27.816Z,92.60
2017-11-07T12:20:54.831Z,92.50
2017-11-07T12:23:21.773Z,92.50
2017-11-07T12:25:48.770Z,92.20
2017-11-07T12:28:15.530Z,92.20
2017-11-07T12:30:42.139Z,92.40
2017-11-07T12:33:09.141Z,91.90
2017-11-07T12:35:35.846Z,91.80
2017-11-07T12:38:02.422Z,91.70
2017-11-07T12:40:28.987Z,91.40
2017-11-07T12:42:55.615Z,91.70
2017-11-07T12:45:22.183Z,91.50
2017-11-07T12:47:48.749Z,91.70
2017-11-07T12:50:27.693Z,91.70
2017-11-07T12:52:54.259Z,91.10
2017-11-07T12:55:20.810Z,91.40
2017-11-07T12:57:47.815Z,91.60
2017-11-07T13:00:14.375Z,91.60
2017-11-07T13:02:40.936Z,91.90
2017-11-07T13:05:07.589Z,92.00
2017-11-07T13:07:40.995Z,92.40
2017-11-07T13:10:07.602Z,92.50
2017-11-07T13:12:34.187Z,92.50
2017-11-07T13:15:00.735Z,92.70
2017-11-07T13:17:27.439Z,92.40
2017-11-07T13:19:53.998Z,92.60
2017-11-07T13:22:20.555Z,92.80
2017-11-07T13:24:47.166Z,92.70
2017-11-07T13:27:13.715Z,92.50
2017-11-07T13:29:40.259Z,92.70
2017-11-07T13:32:06.895Z,92.50
2017-11-07T13:34:33.456Z,92.30
2017-11-07T13:37:00.006Z,92.70
2017-11-07T13:39:26.827Z,92.80
2017-11-07T13:41:53.396Z,92.50
2017-11-07T13:44:20.323Z,92.40
2017-11-07T13:46:47.308Z,92.40
2017-11-07T13:49:13.875Z,92.40
2017-11-07T13:51:40.807Z,92.60
2017-11-07T13:54:07.413Z,92.60
2017-11-07T13:56:34.359Z,92.60
2017-11-07T13:59:00.947Z,92.60
2017-11-07T14:01:27.559Z,92.60
2017-11-07T14:03:54.132Z,92.60
2017-11-07T14:06:20.684Z,92.70
2017-11-07T14:08:47.311Z,92.70
2017-11-07T14:11:13.862Z,92.90
2017-11-07T14:13:40.424Z,93.30
2017-11-07T14:16:07.051Z,92.80
2017-11-07T14:18:33.620Z,92.40
2017-11-07T14:21:00.179Z,92.50
2017-11-07T14:23:26.791Z,92.60
2017-11-07T14:25:53.726Z,92.70
2017-11-07T14:28:20.283Z,92.70
2017-11-07T14:30:46.908Z,92.80
2017-11-07T14:33:13.484Z,92.80
2017-11-07T14:35:40.043Z,92.80
2017-11-07T14:38:06.665Z,92.80
2017-11-07T14:40:33.227Z,92.80
2017-11-07T14:43:00.153Z,92.60
2017-11-07T14:45:27.130Z,92.60
2017-11-07T14:47:53.703Z,92.60
2017-11-07T14:50:20.684Z,92.50
2017-11-07T14:52:47.307Z,92.50
2017-11-07T14:55:13.876Z,92.60
2017-11-07T14:57:40.803Z,92.90
2017-11-07T15:00:07.467Z,92.90
2017-11-07T15:02:34.042Z,92.90
2017-11-07T15:05:00.631Z,92.70
2017-11-07T15:07:27.234Z,92.50
2017-11-07T15:09:53.800Z,92.70
2017-11-07T15:12:20.366Z,92.70
2017-11-07T15:14:46.996Z,92.20
2017-11-07T15:17:13.564Z,92.30
2017-11-07T15:19:40.484Z,92.60
2017-11-07T15:22:07.276Z,92.50
2017-11-07T15:24:33.834Z,92.80
2017-11-07T15:27:00.383Z,92.90
2017-11-07T15:29:27.006Z,93.20
2017-11-07T15:31:53.575Z,93.40
2017-11-07T15:34:20.135Z,93.40
2017-11-07T15:36:46.754Z,93.50
2017-11-07T15:39:13.315Z,93.50
2017-11-07T15:41:39.878Z,93.80
2017-11-07T15:44:06.515Z,93.60
2017-11-07T15:46:33.448Z,93.50
2017-11-07T15:49:00.006Z,93.50
2017-11-07T15:51:26.628Z,93.60
2017-11-07T15:53:53.191Z,93.40
2017-11-07T15:56:19.753Z,93.30
2017-11-07T15:58:46.467Z,93.50
2017-11-07T16:01:13.295Z,93.50
2017-11-07T16:03:39.847Z,93.60
2017-11-07T16:06:06.495Z,93.80
2017-11-07T16:08:33.436Z,93.80
2017-11-07T16:11:00.359Z,93.80
2017-11-07T16:13:27.335Z,93.90
2017-11-07T16:15:53.911Z,93.80
2017-11-07T16:18:20.851Z,94.00
2017-11-07T16:20:47.475Z,94.00
2017-11-07T16:23:14.031Z,93.80
2017-11-07T16:25:40.596Z,93.90
2017-11-07T16:28:07.620Z,94.10
2017-11-07T16:30:34.562Z,94.20
2017-11-07T16:33:01.487Z,93.80
2017-11-07T16:35:28.523Z,93.60
2017-11-07T16:37:55.440Z,93.70
2017-11-07T16:40:21.997Z,93.70
2017-11-07T16:42:48.667Z,94.00
2017-11-07T16:45:15.259Z,94.20
2017-11-07T16:47:41.835Z,94.50
2017-11-07T16:50:09.009Z,93.90
2017-11-07T16:52:35.620Z,93.90
2017-11-07T16:55:02.195Z,94.00
2017-11-07T16:57:28.823Z,94.20
2017-11-07T16:59:55.759Z,94.40
2017-11-07T17:02:22.792Z,94.30
2017-11-07T17:04:49.423Z,94.30
2017-11-07T17:07:15.978Z,94.20
2017-11-07T17:09:42.535Z,94.30
2017-11-07T17:12:09.155Z,94.30
2017-11-07T17:14:35.715Z,94.30
2017-11-07T17:17:02.283Z,94.40
2017-11-07T17:19:28.899Z,94.30
2017-11-07T17:21:55.446Z,94.20
2017-11-07T17:24:22.359Z,94.40
2017-11-07T17:26:48.978Z,94.40
2017-11-07T17:29:15.531Z,94.40
2017-11-07T17:31:42.083Z,94.10
2017-11-07T17:34:08.760Z,94.00
2017-11-07T17:36:35.699Z,94.10
2017-11-07T17:39:02.335Z,94.10
2017-11-07T17:41:28.963Z,94.00
2017-11-07T17:43:55.523Z,94.00
2017-11-07T17:46:22.122Z,93.80
2017-11-07T17:48:48.752Z,93.70
2017-11-07T17:51:15.331Z,93.80
2017-11-07T17:53:41.887Z,93.60
2017-11-07T17:56:08.556Z,93.70
2017-11-07T17:58:35.480Z,93.60
2017-11-07T18:01:02.410Z,93.40
2017-11-07T18:03:29.575Z,93.30
2017-11-07T18:05:56.123Z,93.30
2017-11-07T18:08:22.683Z,93.30
2017-11-07T18:10:49.678Z,93.30
2017-11-07T18:13:16.244Z,93.30
2017-11-07T18:15:42.807Z,93.30
2017-11-07T18:18:09.415Z,93.40
2017-11-07T18:20:35.980Z,93.30
2017-11-07T18:23:02.539Z,93.10
2017-11-07T18:25:29.161Z,93.30
2017-11-07T18:27:55.718Z,93.40
2017-11-07T18:30:22.312Z,94.00
2017-11-07T18:32:48.927Z,94.10
2017-11-07T18:35:15.499Z,94.00
2017-11-07T18:37:42.056Z,93.70
2017-11-07T18:40:08.683Z,93.20
2017-11-07T18:42:35.272Z,93.10
2017-11-07T18:45:02.199Z,92.80
2017-11-07T18:47:29.187Z,92.80
2017-11-07T18:49:55.743Z,92.80
2017-11-07T18:52:22.431Z,93.20
2017-11-07T18:54:49.045Z,92.90
2017-11-07T18:57:15.604Z,93.20
2017-11-07T18:59:42.155Z,93.30
2017-11-07T19:02:08.811Z,93.40
2017-11-07T19:04:35.454Z,93.60
2017-11-07T19:07:02.323Z,93.40
2017-11-07T19:09:29.004Z,93.30
2017-11-07T19:11:55.983Z,92.60
2017-11-07T19:14:22.614Z,92.60
2017-11-07T19:16:49.451Z,92.70
2017-11-07T19:19:15.994Z,92.90
2017-11-07T19:21:42.570Z,93.20
2017-11-07T19:24:09.362Z,93.30
2017-11-07T19:26:35.968Z,93.30
2017-11-07T19:29:02.551Z,93.40
2017-11-07T19:31:29.242Z,93.40
2017-11-07T19:33:56.192Z,93.10
2017-11-07T19:36:22.795Z,93.10
2017-11-07T19:38:49.431Z,93.20
2017-11-07T19:41:16.040Z,93.30
2017-11-07T19:43:42.671Z,92.90
2017-11-07T19:46:09.317Z,92.80
2017-11-07T19:48:35.880Z,92.90
2017-11-07T19:51:02.440Z,93.20
2017-11-07T19:53:29.158Z,93.10
2017-11-07T19:55:55.775Z,93.10
2017-11-07T19:58:22.354Z,92.50
2017-11-07T20:00:49.016Z,92.30
2017-11-07T20:03:15.574Z,92.40
2017-11-07T20:05:42.224Z,92.30
2017-11-07T20:08:09.767Z,92.20
2017-11-07T20:10:36.589Z,92.30
2017-11-07T20:13:03.256Z,92.40
2017-11-07T20:15:29.908Z,92.70
2017-11-07T20:17:56.485Z,92.90
2017-11-07T20:20:23.438Z,93.20
2017-11-07T20:22:50.805Z,92.90
2017-11-07T20:25:17.367Z,92.90
2017-11-07T20:27:43.935Z,92.90
2017-11-07T20:30:10.546Z,93.10
2017-11-07T20:32:37.120Z,93.20
2017-11-07T20:35:04.075Z,92.60
2017-11-07T20:37:30.719Z,92.60
2017-11-07T20:39:57.294Z,92.20
2017-11-07T20:42:23.859Z,92.20
2017-11-07T20:44:50.504Z,92.80
2017-11-07T20:47:17.979Z,93.10
2017-11-07T20:49:44.539Z,93.10
2017-11-07T20:52:11.142Z,93.00
2017-11-07T20:54:37.728Z,93.10
2017-11-07T20:57:04.659Z,93.20
2017-11-07T20:59:31.651Z,93.40
2017-11-07T21:01:58.216Z,93.40
2017-11-07T21:04:24.785Z,93.60
2017-11-07T21:06:51.453Z,93.80
2017-11-07T21:09:18.372Z,94.20
2017-11-07T21:11:45.295Z,94.70
2017-11-07T21:14:12.163Z,94.70
2017-11-07T21:16:38.727Z,94.70
2017-11-07T21:19:05.311Z,94.90
2017-11-07T21:21:31.958Z,94.90
2017-11-07T21:23:58.511Z,94.90
2017-11-07T21:26:25.087Z,94.90
2017-11-07T21:28:51.711Z,94.90
2017-11-07T21:31:18.272Z,94.80
2017-11-07T21:33:45.211Z,94.60
2017-11-07T21:36:12.199Z,94.50
2017-11-07T21:38:38.770Z,94.50
2017-11-07T21:41:05.347Z,93.70
2017-11-07T21:43:32.062Z,93.30
2017-11-07T21:45:59.050Z,93.80
2017-11-07T21:48:25.620Z,93.90
2017-11-07T21:50:52.506Z,94.20
2017-11-07T21:53:26.105Z,94.40
2017-11-07T21:55:52.980Z,94.50
2017-11-07T21:58:19.695Z,94.50
2017-11-07T22:00:46.641Z,94.50
2017-11-07T22:03:13.271Z,94.50
2017-11-07T22:05:39.870Z,94.40
2017-11-07T22:08:06.414Z,94.40
2017-11-07T22:10:33.133Z,94.00
2017-11-07T22:12:59.695Z,93.90
2017-11-07T22:15:26.255Z,93.40
2017-11-07T22:17:55.243Z,93.60
2017-11-07T22:20:21.795Z,93.60
2017-11-07T22:22:48.343Z,93.40
2017-11-07T22:25:15.903Z,93.30
2017-11-07T22:27:43.239Z,93.50
2017-11-07T22:30:09.870Z,93.20
2017-11-07T22:32:36.487Z,93.30
2017-11-07T22:35:03.197Z,93.00
2017-11-07T22:37:29.747Z,93.30
2017-11-07T22:39:56.723Z,92.40
2017-11-07T22:42:23.316Z,92.40
2017-11-07T22:44:49.867Z,92.50
2017-11-07T22:47:16.474Z,92.70
2017-11-07T22:49:43.026Z,92.80
2017-11-07T22:52:09.591Z,93.00
2017-11-07T22:54:36.436Z,93.30
2017-11-07T22:57:03.012Z,93.00
2017-11-07T22:59:29.598Z,93.00
2017-11-07T23:01:56.211Z,92.70
2017-11-07T23:04:22.775Z,92.40
2017-11-07T23:06:49.740Z,92.40
2017-11-07T23:09:16.341Z,92.40
2017-11-07T23:11:42.907Z,92.40
2017-11-07T23:14:09.471Z,92.80
2017-11-07T23:16:36.458Z,92.70
2017-11-07T23:19:03.019Z,92.70
2017-11-07T23:21:29.985Z,92.10
2017-11-07T23:23:56.595Z,92.20
2017-11-07T23:26:23.167Z,91.80
2017-11-07T23:28:49.724Z,91.90
2017-11-07T23:31:16.326Z,91.90
2017-11-07T23:33:43.250Z,92.50
2017-11-07T23:36:10.176Z,92.70
2017-11-07T23:38:37.175Z,92.10
2017-11-07T23:41:03.726Z,92.00
2017-11-07T23:43:30.275Z,92.00
2017-11-07T23:45:56.887Z,91.90
2017-11-07T23:48:23.451Z,91.90
2017-11-07T23:50:50.008Z,92.00
2017-11-07T23:53:16.996Z,91.90
2017-11-07T23:55:43.574Z,91.90
2017-11-07T23:58:10.140Z,91.70
